Time;durP1;ratioP1;P1;durP2;ratioP2;P2;SDS_P1;SDS_P2;PMS_P1;PMS_P2;Temp;Humidity;BMP_temperature;BMP_pressure;BME280_temperature;BME280_humidity;BME280_pressure;Samples;Min_cycle;Max_cycle;Signal;HPM_P1;HPM_P2
2024/01/12 00:01:24;;;;;;;5.05;1.90;;;2.40;99.90;;;;;;4863363;29;20049;-75
2024/01/12 00:03:50;;;;;;;6.13;2.35;;;2.30;99.90;;;;;;4863027;29;20057;-75
2024/01/12 00:06:15;;;;;;;7.03;2.20;;;2.30;99.90;;;;;;4862705;29;20056;-75
2024/01/12 00:08:42;;;;;;;7.38;2.10;;;2.30;99.90;;;;;;4863299;29;20228;-75
2024/01/12 00:11:09;;;;;;;10.93;2.83;;;2.30;99.90;;;;;;4862801;29;20049;-75
2024/01/12 00:13:35;;;;;;;7.60;2.20;;;2.40;99.90;;;;;;4862869;29;20053;-75
2024/01/12 00:16:06;;;;;;;4.70;2.00;;;2.30;99.90;;;;;;4862982;29;20128;-75
2024/01/12 00:18:31;;;;;;;9.18;2.05;;;2.30;99.90;;;;;;4862911;29;20053;-75
2024/01/12 00:20:57;;;;;;;7.10;2.42;;;2.20;99.90;;;;;;4863133;29;20109;-75
2024/01/12 00:23:23;;;;;;;9.48;3.20;;;2.20;99.90;;;;;;4862761;29;20375;-75
2024/01/12 00:25:48;;;;;;;8.68;2.10;;;2.20;99.90;;;;;;4863068;29;20057;-75
2024/01/12 00:28:14;;;;;;;9.27;2.60;;;2.20;99.90;;;;;;4862591;29;20049;-75
2024/01/12 00:30:39;;;;;;;7.93;2.17;;;2.10;99.90;;;;;;4862821;29;20048;-75
2024/01/12 00:33:06;;;;;;;5.97;2.15;;;2.20;99.90;;;;;;4862803;29;20109;-75
2024/01/12 00:35:31;;;;;;;8.52;2.55;;;2.10;99.90;;;;;;4863042;29;20045;-75
2024/01/12 00:37:57;;;;;;;10.95;2.60;;;2.20;99.90;;;;;;4862565;29;20049;-75
2024/01/12 00:40:24;;;;;;;9.75;2.30;;;2.20;99.90;;;;;;4862513;29;20041;-75
2024/01/12 00:42:52;;;;;;;7.38;2.00;;;2.10;99.90;;;;;;4862857;29;20052;-75
2024/01/12 00:45:18;;;;;;;7.70;1.63;;;2.20;99.90;;;;;;4862946;29;20128;-75
2024/01/12 00:47:43;;;;;;;11.02;2.20;;;2.10;99.90;;;;;;4862453;29;20128;-75
2024/01/12 00:50:10;;;;;;;5.05;2.00;;;2.10;99.90;;;;;;4862893;29;20041;-75
2024/01/12 00:52:35;;;;;;;8.35;2.25;;;2.10;99.90;;;;;;4862666;29;20117;-75
2024/01/12 00:55:04;;;;;;;10.07;2.50;;;2.10;99.90;;;;;;4863747;29;20045;-75
2024/01/12 00:57:29;;;;;;;8.60;2.38;;;2.10;99.90;;;;;;4865869;29;20075;-75
2024/01/12 00:59:57;;;;;;;8.55;2.20;;;2.20;99.90;;;;;;4865874;29;20048;-75
2024/01/12 01:02:23;;;;;;;6.63;2.20;;;2.10;99.90;;;;;;4866075;29;20181;-75
2024/01/12 01:04:49;;;;;;;15.32;3.25;;;2.30;99.90;;;;;;4865427;29;20140;-75
2024/01/12 01:07:19;;;;;;;5.75;2.20;;;2.30;99.90;;;;;;4865476;29;20112;-75
2024/01/12 01:09:45;;;;;;;4.80;1.52;;;2.40;99.90;;;;;;4865573;29;20049;-75
2024/01/12 01:12:11;;;;;;;7.00;1.75;;;2.50;99.90;;;;;;4865934;29;20041;-75
2024/01/12 01:14:36;;;;;;;8.90;1.65;;;2.60;99.90;;;;;;4865700;29;20128;-75
2024/01/12 01:17:02;;;;;;;10.73;2.03;;;2.70;99.90;;;;;;4865592;29;20061;-75
2024/01/12 01:19:28;;;;;;;9.45;1.88;;;2.80;99.90;;;;;;4865739;29;20123;-75
2024/01/12 01:21:54;;;;;;;6.38;2.08;;;2.80;99.90;;;;;;4865416;29;20128;-75
2024/01/12 01:24:19;;;;;;;4.82;1.70;;;2.90;99.90;;;;;;4865382;29;20086;-75
2024/01/12 01:26:45;;;;;;;6.60;1.90;;;2.90;99.90;;;;;;4865375;29;20049;-75
2024/01/12 01:29:10;;;;;;;19.15;3.03;;;2.90;99.90;;;;;;4865685;29;20045;-75
2024/01/12 01:31:36;;;;;;;7.97;2.03;;;3.00;99.90;;;;;;4865403;29;20085;-75
2024/01/12 01:34:01;;;;;;;9.48;3.28;;;2.90;99.90;;;;;;4865532;29;20053;-75
2024/01/12 01:36:27;;;;;;;10.65;2.08;;;2.90;99.90;;;;;;4865117;29;20378;-74
2024/01/12 01:38:53;;;;;;;7.38;3.45;;;2.80;99.90;;;;;;4865433;29;20489;-75
2024/01/12 01:41:39;;;;;;;8.07;2.67;;;2.80;99.90;;;;;;4865150;29;20481;-75
2024/01/12 01:44:04;;;;;;;10.75;2.40;;;2.70;99.90;;;;;;4864634;29;20416;-75
2024/01/12 01:46:30;;;;;;;13.35;2.83;;;2.70;99.90;;;;;;4865024;29;20474;-75
2024/01/12 01:48:56;;;;;;;12.00;2.65;;;2.70;99.90;;;;;;4864921;29;20113;-75
2024/01/12 01:51:22;;;;;;;7.63;2.72;;;2.70;99.90;;;;;;4864927;29;20045;-75
2024/01/12 01:53:52;;;;;;;7.45;2.53;;;2.70;99.90;;;;;;4864875;29;20053;-75
2024/01/12 01:56:19;;;;;;;15.38;2.67;;;2.70;99.90;;;;;;4864950;29;20128;-75
2024/01/12 01:58:46;;;;;;;12.10;3.10;;;2.60;99.90;;;;;;4865134;29;20075;-75
2024/01/12 02:01:12;;;;;;;12.63;2.38;;;2.60;99.90;;;;;;4864810;29;20049;-75
2024/01/12 02:03:48;;;;;;;16.15;3.00;;;2.60;99.90;;;;;;4881506;29;20045;-75
2024/01/12 02:06:22;;;;;;;11.13;2.50;;;2.60;99.90;;;;;;4863850;29;20098;-75
2024/01/12 02:08:49;;;;;;;7.40;2.33;;;2.50;99.90;;;;;;4864738;29;20060;-75
2024/01/12 02:11:15;;;;;;;14.95;2.97;;;2.40;99.90;;;;;;4864900;29;20093;-75
2024/01/12 02:13:41;;;;;;;13.00;2.75;;;2.30;99.90;;;;;;4864605;29;20050;-75
2024/01/12 02:16:07;;;;;;;15.68;2.72;;;2.20;99.90;;;;;;4864753;29;20057;-75
2024/01/12 02:18:32;;;;;;;16.13;3.25;;;2.10;99.90;;;;;;4864722;29;20564;-75
2024/01/12 02:20:58;;;;;;;9.40;2.63;;;2.00;99.90;;;;;;4864292;29;20083;-75
2024/01/12 02:23:24;;;;;;;11.15;2.65;;;2.00;99.90;;;;;;4864454;29;20053;-75
2024/01/12 02:25:49;;;;;;;8.73;3.80;;;1.90;99.90;;;;;;4864731;29;20053;-75
2024/01/12 02:28:16;;;;;;;14.07;3.75;;;1.70;99.90;;;;;;4864308;29;20045;-75
2024/01/12 02:30:42;;;;;;;11.43;3.28;;;1.70;99.90;;;;;;4864173;29;20060;-75
2024/01/12 02:33:08;;;;;;;11.50;3.15;;;1.60;99.90;;;;;;4864135;29;20048;-75
2024/01/12 02:35:34;;;;;;;9.00;2.90;;;1.50;99.90;;;;;;4864176;29;20052;-75
2024/01/12 02:38:00;;;;;;;11.10;3.30;;;1.40;99.90;;;;;;4864139;29;20041;-75
2024/01/12 02:40:26;;;;;;;8.73;1.80;;;1.30;99.90;;;;;;4864211;29;20059;-75
2024/01/12 02:42:51;;;;;;;7.95;2.15;;;1.30;99.90;;;;;;4863828;29;20073;-75
2024/01/12 02:45:17;;;;;;;13.60;2.72;;;1.20;99.90;;;;;;4864015;29;20055;-75
2024/01/12 02:47:43;;;;;;;6.65;2.30;;;1.10;99.90;;;;;;4863828;29;20049;-75
2024/01/12 02:50:09;;;;;;;7.03;2.17;;;1.10;99.90;;;;;;4864114;29;20060;-75
2024/01/12 02:52:35;;;;;;;10.95;2.40;;;1.00;99.90;;;;;;4863939;29;20135;-75
2024/01/12 02:55:03;;;;;;;10.02;2.13;;;1.00;99.90;;;;;;4863926;29;20085;-75
2024/01/12 02:57:29;;;;;;;7.50;2.03;;;0.90;99.90;;;;;;4864137;29;20045;-75
2024/01/12 02:59:55;;;;;;;11.40;3.40;;;0.80;99.90;;;;;;4863712;29;20076;-75
2024/01/12 03:02:21;;;;;;;10.23;3.03;;;0.80;99.90;;;;;;4863675;29;20091;-75
2024/01/12 03:04:49;;;;;;;6.68;2.65;;;0.80;99.90;;;;;;4880227;29;20056;-76
2024/01/12 03:07:14;;;;;;;9.32;3.20;;;0.70;99.90;;;;;;4863604;29;20053;-75
2024/01/12 03:09:40;;;;;;;7.18;2.20;;;0.70;99.90;;;;;;4863931;29;20136;-75
2024/01/12 03:12:06;;;;;;;9.82;2.25;;;0.70;99.90;;;;;;4864140;29;20053;-75
2024/01/12 03:14:31;;;;;;;12.30;2.60;;;0.70;99.90;;;;;;4880528;29;20049;-75
2024/01/12 03:17:00;;;;;;;12.80;2.80;;;0.70;99.90;;;;;;4863479;29;20091;-75
2024/01/12 03:19:26;;;;;;;12.55;3.08;;;0.70;99.90;;;;;;4863310;29;20076;-75
2024/01/12 03:21:51;;;;;;;9.88;2.72;;;0.70;99.90;;;;;;4863759;29;20049;-75
2024/01/12 03:24:17;;;;;;;10.20;2.40;;;0.80;99.90;;;;;;4863460;29;20379;-75
2024/01/12 03:26:42;;;;;;;8.90;2.80;;;0.80;99.90;;;;;;4863502;29;20045;-75
2024/01/12 03:29:08;;;;;;;11.35;2.70;;;0.80;99.90;;;;;;4879939;29;20049;-75
2024/01/12 03:31:34;;;;;;;9.10;2.95;;;0.90;99.90;;;;;;4863595;29;20045;-75
2024/01/12 03:33:59;;;;;;;11.60;2.65;;;0.90;99.90;;;;;;4863309;29;20088;-75
2024/01/12 03:36:27;;;;;;;13.13;2.72;;;0.90;99.90;;;;;;4863346;29;20048;-75
2024/01/12 03:38:54;;;;;;;13.40;2.50;;;0.90;99.90;;;;;;4863244;29;20057;-75
2024/01/12 03:41:20;;;;;;;10.55;3.20;;;1.00;99.90;;;;;;4863120;29;20049;-75
2024/01/12 03:43:46;;;;;;;12.68;2.65;;;1.00;99.90;;;;;;4863356;29;20053;-75
2024/01/12 03:46:12;;;;;;;10.50;3.22;;;1.00;99.90;;;;;;4863047;29;20460;-75
2024/01/12 03:48:40;;;;;;;8.05;2.78;;;1.10;99.90;;;;;;4863159;29;20056;-75
2024/01/12 03:51:05;;;;;;;10.85;3.00;;;1.10;99.90;;;;;;4863367;29;20049;-75
2024/01/12 03:53:31;;;;;;;7.88;2.65;;;1.10;99.90;;;;;;4879788;29;20393;-75
2024/01/12 03:55:56;;;;;;;13.88;2.90;;;1.10;99.90;;;;;;4863030;29;20045;-75
2024/01/12 03:58:22;;;;;;;9.07;2.55;;;1.10;99.90;;;;;;4863008;29;20052;-75
2024/01/12 04:00:50;;;;;;;9.45;2.38;;;1.20;99.90;;;;;;4863338;29;20049;-75
2024/01/12 04:03:16;;;;;;;12.30;3.55;;;1.10;99.90;;;;;;4863278;29;20450;-75
2024/01/12 04:05:44;;;;;;;16.58;2.70;;;1.20;99.90;;;;;;4862829;29;20065;-75
2024/01/12 04:08:09;;;;;;;16.35;3.25;;;1.20;99.90;;;;;;4862962;29;20052;-75
2024/01/12 04:10:36;;;;;;;21.13;4.32;;;1.20;99.90;;;;;;4862903;29;20049;-75
2024/01/12 04:13:01;;;;;;;9.80;3.30;;;1.20;99.90;;;;;;4879569;29;20438;-75
2024/01/12 04:15:30;;;;;;;10.38;3.60;;;1.20;99.90;;;;;;4862954;29;20541;-75
2024/01/12 04:17:55;;;;;;;14.00;4.03;;;1.20;99.90;;;;;;4862936;29;20061;-75
2024/01/12 04:20:21;;;;;;;16.83;3.20;;;1.30;99.90;;;;;;4862977;29;20048;-75
2024/01/12 04:22:47;;;;;;;15.63;4.05;;;1.30;99.90;;;;;;4879619;29;20221;-75
2024/01/12 04:25:12;;;;;;;11.27;3.30;;;1.30;99.90;;;;;;4861622;29;20080;-75
2024/01/12 04:27:38;;;;;;;8.88;2.92;;;1.30;99.90;;;;;;4862750;29;20078;-75
2024/01/12 04:30:08;;;;;;;8.85;3.25;;;1.30;99.90;;;;;;4864171;29;20095;-75
2024/01/12 04:32:34;;;;;;;14.10;3.60;;;1.40;99.90;;;;;;4866436;29;20084;-75
2024/01/12 04:35:00;;;;;;;14.57;2.72;;;1.40;99.90;;;;;;4866583;29;20049;-75
2024/01/12 04:37:26;;;;;;;15.02;3.75;;;1.40;99.90;;;;;;4866349;29;20091;-75
2024/01/12 04:39:51;;;;;;;17.63;3.20;;;1.40;99.90;;;;;;4866390;29;20057;-75
2024/01/12 04:42:17;;;;;;;14.50;4.32;;;1.40;99.90;;;;;;4866125;29;20049;-75
2024/01/12 04:44:43;;;;;;;12.80;3.78;;;1.50;99.90;;;;;;4866146;29;20052;-75
2024/01/12 04:47:09;;;;;;;12.90;3.42;;;1.50;99.90;;;;;;4866326;29;20053;-75
2024/01/12 04:49:34;;;;;;;13.93;3.90;;;1.50;99.90;;;;;;4866162;29;20048;-75
2024/01/12 04:52:00;;;;;;;21.30;3.13;;;1.50;99.90;;;;;;4866143;29;20045;-75
2024/01/12 04:54:26;;;;;;;11.85;2.90;;;1.50;99.90;;;;;;4866174;29;20144;-75
2024/01/12 04:56:51;;;;;;;14.23;3.63;;;1.50;99.90;;;;;;4865929;29;20409;-75
2024/01/12 04:59:17;;;;;;;14.18;3.20;;;1.60;99.90;;;;;;4882633;29;20055;-75
2024/01/12 05:01:42;;;;;;;18.95;3.55;;;1.80;99.90;;;;;;4866037;29;20075;-75
2024/01/12 05:04:08;;;;;;;22.15;3.45;;;1.90;99.90;;;;;;4866039;29;20052;-75
2024/01/12 05:06:34;;;;;;;17.58;4.00;;;2.10;99.90;;;;;;4865605;29;20053;-75
2024/01/12 05:09:06;;;;;;;29.45;3.88;;;2.30;99.90;;;;;;4865900;29;20405;-75
2024/01/12 05:11:33;;;;;;;23.52;4.95;;;2.40;99.90;;;;;;4865935;29;20081;-75
2024/01/12 05:13:59;;;;;;;11.63;3.10;;;2.50;99.90;;;;;;4865579;29;20053;-75
2024/01/12 05:16:28;;;;;;;16.48;4.03;;;2.60;99.90;;;;;;4865482;29;20508;-75
2024/01/12 05:18:54;;;;;;;14.93;2.75;;;2.70;99.90;;;;;;4865561;29;20489;-75
2024/01/12 05:21:19;;;;;;;23.73;3.88;;;2.70;99.90;;;;;;4865455;29;20080;-75
2024/01/12 05:23:45;;;;;;;18.70;3.53;;;2.70;99.90;;;;;;4865679;29;20053;-75
2024/01/12 05:26:14;;;;;;;19.45;3.03;;;2.70;99.90;;;;;;4865625;29;20446;-75
2024/01/12 05:28:39;;;;;;;18.98;3.80;;;2.80;99.90;;;;;;4865250;29;20535;-75
2024/01/12 05:31:08;;;;;;;19.50;2.92;;;2.80;99.90;;;;;;4865428;29;20081;-75
2024/01/12 05:33:33;;;;;;;18.17;2.70;;;2.80;99.90;;;;;;4865498;29;20057;-75
2024/01/12 05:35:59;;;;;;;19.27;2.70;;;2.90;99.90;;;;;;4865437;29;20053;-75
2024/01/12 05:38:25;;;;;;;14.50;3.67;;;3.00;99.90;;;;;;4865181;29;20128;-75
2024/01/12 05:40:50;;;;;;;23.50;4.55;;;3.00;99.90;;;;;;4865154;29;20045;-75
2024/01/12 05:43:17;;;;;;;20.17;3.42;;;3.00;99.90;;;;;;4865430;29;20105;-75
2024/01/12 05:45:52;;;;;;;11.82;3.90;;;3.00;99.90;;;;;;4865380;29;20132;-75
2024/01/12 05:48:18;;;;;;;15.30;3.75;;;3.10;99.90;;;;;;4865103;29;20057;-75
2024/01/12 05:50:44;;;;;;;26.00;2.78;;;3.20;99.90;;;;;;4865116;29;20072;-75
2024/01/12 05:53:10;;;;;;;14.07;2.53;;;3.30;99.90;;;;;;4865220;29;20477;-75
2024/01/12 05:55:35;;;;;;;14.77;3.00;;;3.30;99.90;;;;;;4864939;29;20083;-75
2024/01/12 05:58:03;;;;;;;24.73;3.08;;;3.40;99.90;;;;;;4865173;29;20069;-75
2024/01/12 06:00:28;;;;;;;20.25;3.20;;;3.40;99.90;;;;;;4864847;29;20077;-75
2024/01/12 06:02:54;;;;;;;22.65;2.58;;;3.40;99.90;;;;;;4864637;29;20140;-75
2024/01/12 06:05:19;;;;;;;20.50;2.55;;;3.50;99.90;;;;;;4864637;29;20105;-75
2024/01/12 06:07:45;;;;;;;14.45;3.30;;;3.50;99.90;;;;;;4864648;29;20088;-75
2024/01/12 06:10:13;;;;;;;15.32;2.22;;;3.50;99.90;;;;;;4864663;29;20106;-75
2024/01/12 06:12:39;;;;;;;17.30;2.78;;;3.60;99.90;;;;;;4864836;29;20064;-75
2024/01/12 06:15:05;;;;;;;19.58;2.60;;;3.60;99.90;;;;;;4864564;29;20041;-75
2024/01/12 06:17:31;;;;;;;12.45;2.33;;;3.60;99.90;;;;;;4864732;29;20049;-75
2024/01/12 06:19:56;;;;;;;14.68;2.05;;;3.70;99.90;;;;;;4864454;29;20049;-75
2024/01/12 06:22:22;;;;;;;21.85;3.05;;;3.70;99.90;;;;;;4864435;29;20153;-75
2024/01/12 06:24:48;;;;;;;11.65;2.42;;;3.80;99.90;;;;;;4864685;29;20052;-75
2024/01/12 06:27:13;;;;;;;9.35;1.70;;;3.80;99.90;;;;;;4864259;29;20080;-75
2024/01/12 06:29:39;;;;;;;11.20;2.28;;;3.90;99.90;;;;;;4864404;29;20117;-75
2024/01/12 06:32:05;;;;;;;20.27;3.38;;;4.00;99.90;;;;;;4864535;29;20052;-75
2024/01/12 06:34:33;;;;;;;14.35;2.30;;;4.10;99.90;;;;;;4864345;29;20485;-75
2024/01/12 06:36:58;;;;;;;11.07;2.38;;;4.10;99.90;;;;;;4880986;29;20101;-75
2024/01/12 06:39:24;;;;;;;11.70;1.60;;;4.10;99.90;;;;;;4864388;29;20061;-76
2024/01/12 06:41:49;;;;;;;15.30;2.67;;;4.20;99.90;;;;;;4864164;29;20402;-75
2024/01/12 06:44:15;;;;;;;13.77;2.33;;;4.20;99.90;;;;;;4864109;29;20048;-75
2024/01/12 06:46:44;;;;;;;16.63;2.50;;;4.20;99.90;;;;;;4863833;29;20037;-75
2024/01/12 06:49:12;;;;;;;10.52;1.83;;;4.20;99.90;;;;;;4864237;29;20053;-75
2024/01/12 06:51:38;;;;;;;12.15;2.53;;;4.20;99.90;;;;;;4864167;29;20096;-76
2024/01/12 06:54:04;;;;;;;12.60;2.03;;;4.20;99.90;;;;;;4863522;29;20053;-76
2024/01/12 06:56:30;;;;;;;10.45;1.70;;;4.20;99.90;;;;;;4863955;29;20052;-76
2024/01/12 06:58:56;;;;;;;15.95;2.92;;;4.20;99.90;;;;;;4863914;29;20052;-76
2024/01/12 07:01:22;;;;;;;14.60;2.55;;;4.20;99.90;;;;;;4863854;29;20056;-76
2024/01/12 07:03:47;;;;;;;11.77;2.00;;;4.30;99.90;;;;;;4863996;29;20041;-75
2024/01/12 07:06:13;;;;;;;18.38;2.00;;;4.20;99.90;;;;;;4863464;29;20533;-76
2024/01/12 07:08:39;;;;;;;12.68;1.58;;;4.20;99.90;;;;;;4863655;29;20068;-75
2024/01/12 07:11:06;;;;;;;9.80;2.97;;;4.20;99.90;;;;;;4863661;29;20049;-76
2024/01/12 07:13:32;;;;;;;12.27;2.42;;;4.20;99.90;;;;;;4863584;29;20049;-75
2024/01/12 07:15:58;;;;;;;14.50;2.05;;;4.20;99.90;;;;;;4863774;29;20041;-76
2024/01/12 07:18:23;;;;;;;16.00;2.28;;;4.20;99.90;;;;;;4863547;29;20445;-76
2024/01/12 07:20:49;;;;;;;11.48;1.85;;;4.20;99.90;;;;;;4880284;29;20044;-76
2024/01/12 07:23:14;;;;;;;12.90;2.30;;;4.20;99.90;;;;;;4863317;29;20072;-75
2024/01/12 07:25:40;;;;;;;18.50;2.70;;;4.20;99.90;;;;;;4863504;29;20045;-75
2024/01/12 07:28:06;;;;;;;9.95;2.05;;;4.20;99.90;;;;;;4863503;29;20101;-75
2024/01/12 07:30:33;;;;;;;12.85;2.42;;;4.20;99.90;;;;;;4863216;29;20351;-75
2024/01/12 07:32:59;;;;;;;11.77;1.45;;;4.30;99.90;;;;;;4863263;29;20060;-75
2024/01/12 07:35:24;;;;;;;15.82;2.10;;;4.40;99.90;;;;;;4863284;29;20045;-75
2024/01/12 07:37:50;;;;;;;23.95;3.60;;;4.30;99.90;;;;;;4863631;29;20097;-75
2024/01/12 07:40:16;;;;;;;14.13;1.73;;;4.30;99.90;;;;;;4863585;29;20481;-76
2024/01/12 07:42:43;;;;;;;17.35;2.72;;;4.30;99.90;;;;;;4879974;29;20060;-75
2024/01/12 07:45:10;;;;;;;10.70;1.77;;;4.40;99.90;;;;;;4863083;29;20155;-75
2024/01/12 07:47:36;;;;;;;11.70;1.90;;;4.50;99.90;;;;;;4863198;29;20119;-75
2024/01/12 07:50:06;;;;;;;19.80;2.97;;;4.50;99.90;;;;;;4863031;29;20446;-75
2024/01/12 07:52:32;;;;;;;12.55;3.50;;;4.50;99.90;;;;;;4863181;29;20494;-76
2024/01/12 07:54:57;;;;;;;19.25;2.90;;;4.50;99.90;;;;;;4862810;29;20076;-76
2024/01/12 07:57:23;;;;;;;14.07;2.28;;;4.50;99.90;;;;;;4862494;29;20057;-75
2024/01/12 07:59:49;;;;;;;13.70;2.28;;;4.40;99.90;;;;;;4861951;29;20053;-76
2024/01/12 08:02:15;;;;;;;13.32;2.00;;;4.50;99.90;;;;;;4863033;29;20409;-76
2024/01/12 08:04:41;;;;;;;21.08;4.60;;;4.50;99.90;;;;;;4863464;29;20081;-76
2024/01/12 08:07:06;;;;;;;16.90;1.85;;;4.50;99.90;;;;;;4866506;29;20135;-76
2024/01/12 08:09:32;;;;;;;9.38;1.65;;;4.50;99.90;;;;;;4866952;29;20053;-76
2024/01/12 08:11:58;;;;;;;18.73;2.70;;;4.60;99.90;;;;;;4866783;29;20064;-76
2024/01/12 08:14:23;;;;;;;7.85;1.52;;;4.60;99.90;;;;;;4866731;29;20565;-76
2024/01/12 08:16:50;;;;;;;12.13;1.95;;;4.70;99.90;;;;;;4866551;29;20394;-76
2024/01/12 08:19:15;;;;;;;11.68;1.73;;;4.70;99.90;;;;;;4866453;29;20052;-75
2024/01/12 08:21:41;;;;;;;12.48;2.38;;;4.70;99.90;;;;;;4866770;29;20052;-74
2024/01/12 08:24:07;;;;;;;11.18;2.53;;;4.70;99.90;;;;;;4883088;29;20108;-75
2024/01/12 08:26:33;;;;;;;14.90;1.92;;;4.70;99.90;;;;;;4866323;29;20053;-76
2024/01/12 08:29:01;;;;;;;12.43;2.13;;;4.70;99.90;;;;;;4866690;29;20052;-76
2024/01/12 08:31:28;;;;;;;12.15;2.08;;;4.70;99.90;;;;;;4859609;29;20078;-75
2024/01/12 08:33:54;;;;;;;13.48;2.00;;;4.80;99.90;;;;;;4871136;29;20093;-75
2024/01/12 08:36:20;;;;;;;9.60;1.85;;;4.70;99.90;;;;;;4847438;29;20116;-75
2024/01/12 08:38:45;;;;;;;11.02;1.45;;;4.70;99.90;;;;;;4847561;29;20137;-75
2024/01/12 08:41:11;;;;;;;11.00;1.40;;;4.80;99.90;;;;;;4847712;29;20049;-74
2024/01/12 08:43:37;;;;;;;10.10;1.73;;;4.80;99.90;;;;;;4847606;29;20053;-74
2024/01/12 08:46:02;;;;;;;11.27;1.48;;;4.80;99.90;;;;;;4847723;29;20068;-75
2024/01/12 08:48:29;;;;;;;10.05;1.95;;;4.80;99.90;;;;;;4847274;29;20072;-75
2024/01/12 08:50:54;;;;;;;10.90;1.88;;;4.80;99.90;;;;;;4847228;29;20045;-75
2024/01/12 08:53:20;;;;;;;10.80;1.90;;;4.80;99.90;;;;;;4847463;29;20059;-75
2024/01/12 08:55:46;;;;;;;13.00;1.75;;;4.90;99.90;;;;;;4847478;29;20398;-74
2024/01/12 08:58:12;;;;;;;9.63;1.48;;;4.90;99.90;;;;;;4847437;29;20045;-75
2024/01/12 09:00:37;;;;;;;13.75;1.92;;;4.90;99.90;;;;;;4847077;29;20089;-76
2024/01/12 09:03:03;;;;;;;9.38;1.60;;;4.80;99.90;;;;;;4847288;29;20545;-75
2024/01/12 09:05:31;;;;;;;14.80;2.13;;;4.70;99.90;;;;;;4847048;29;20064;-76
2024/01/12 09:07:57;;;;;;;15.40;2.17;;;4.80;99.90;;;;;;4862074;29;20413;-75
2024/01/12 09:10:23;;;;;;;9.77;2.10;;;4.80;99.90;;;;;;4847196;29;20057;-76
2024/01/12 09:12:49;;;;;;;20.42;2.55;;;4.80;99.90;;;;;;4846956;29;20453;-75
2024/01/12 09:15:14;;;;;;;25.42;3.35;;;4.80;99.90;;;;;;4863458;29;20042;-75
2024/01/12 09:17:41;;;;;;;17.48;3.30;;;4.80;99.90;;;;;;4863434;29;20090;-75
2024/01/12 09:20:07;;;;;;;21.58;3.22;;;4.80;99.90;;;;;;4846748;29;20050;-74
2024/01/12 09:22:33;;;;;;;21.27;3.78;;;4.80;99.90;;;;;;4846675;29;20132;-75
2024/01/12 09:24:59;;;;;;;12.85;2.75;;;4.80;99.90;;;;;;4846691;29;20132;-75
2024/01/12 09:27:24;;;;;;;15.77;3.25;;;4.80;99.90;;;;;;4846832;29;20049;-74
2024/01/12 09:29:50;;;;;;;22.45;3.08;;;4.80;99.90;;;;;;4846485;29;20545;-75
2024/01/12 09:32:16;;;;;;;12.20;1.98;;;4.90;99.90;;;;;;4846564;29;20056;-76
2024/01/12 09:34:41;;;;;;;13.85;1.80;;;4.90;99.90;;;;;;4846555;29;20058;-75
2024/01/12 09:37:07;;;;;;;17.65;1.73;;;4.90;99.90;;;;;;4846793;29;20046;-75
2024/01/12 09:39:33;;;;;;;13.90;2.25;;;4.90;99.90;;;;;;4846356;29;20061;-75
2024/01/12 09:42:02;;;;;;;17.75;2.47;;;4.80;99.90;;;;;;4846652;29;20049;-75
2024/01/12 09:44:31;;;;;;;14.65;2.65;;;4.90;99.90;;;;;;4846411;29;20053;-74
2024/01/12 09:46:59;;;;;;;17.55;2.75;;;4.90;99.90;;;;;;4862830;29;20394;-75
2024/01/12 09:49:30;;;;;;;18.98;3.60;;;4.90;99.90;;;;;;4846478;29;20135;-75
2024/01/12 09:51:57;;;;;;;14.07;3.25;;;5.00;99.90;;;;;;4846483;29;20045;-75
2024/01/12 09:54:23;;;;;;;13.80;2.40;;;4.90;99.90;;;;;;4846164;29;20057;-75
2024/01/12 09:56:51;;;;;;;14.82;2.78;;;5.00;99.90;;;;;;4846320;29;20098;-75
2024/01/12 09:59:18;;;;;;;14.95;2.47;;;5.00;99.90;;;;;;4846293;29;20056;-74
2024/01/12 10:01:44;;;;;;;19.70;3.28;;;4.90;99.90;;;;;;4846117;29;20049;-75
2024/01/12 10:04:09;;;;;;;17.23;3.42;;;4.90;99.90;;;;;;4846127;29;20056;-75
2024/01/12 10:06:36;;;;;;;17.20;2.97;;;5.00;99.90;;;;;;4845744;29;20148;-75
2024/01/12 10:09:02;;;;;;;14.88;2.30;;;5.00;99.90;;;;;;4845852;29;20063;-75
2024/01/12 10:11:27;;;;;;;26.65;3.97;;;4.90;99.90;;;;;;4846090;29;20037;-75
2024/01/12 10:13:53;;;;;;;19.10;3.03;;;5.00;99.90;;;;;;4862544;29;20882;-75
2024/01/12 10:16:20;;;;;;;19.90;5.28;;;4.90;99.90;;;;;;4845803;29;20054;-75
2024/01/12 10:18:46;;;;;;;18.55;2.90;;;4.90;99.90;;;;;;4846052;29;20068;-75
2024/01/12 10:21:14;;;;;;;18.65;3.72;;;4.90;99.90;;;;;;4845923;29;20113;-75
2024/01/12 10:23:43;;;;;;;23.42;4.60;;;5.00;99.90;;;;;;4845640;29;20058;-74
2024/01/12 10:26:15;;;;;;;23.40;4.13;;;5.00;99.90;;;;;;4845634;29;20061;-75
2024/01/12 10:28:42;;;;;;;21.35;3.90;;;5.00;99.90;;;;;;4844830;29;20057;-75
2024/01/12 10:31:08;;;;;;;18.27;2.55;;;5.10;99.90;;;;;;4845413;29;20049;-75
2024/01/12 10:33:34;;;;;;;20.90;5.28;;;5.10;99.90;;;;;;4845694;29;20057;-75
2024/01/12 10:36:21;;;;;;;20.05;3.45;;;5.10;99.90;;;;;;4845461;29;20093;-75
2024/01/12 10:38:49;;;;;;;15.20;2.40;;;5.00;99.90;;;;;;4845792;29;20132;-75
2024/01/12 10:41:19;;;;;;;19.70;3.22;;;5.10;99.90;;;;;;4845697;29;20145;-75
2024/01/12 10:43:49;;;;;;;14.18;2.50;;;5.10;99.90;;;;;;4845330;29;20045;-75
2024/01/12 10:46:35;;;;;;;20.23;2.90;;;5.10;99.90;;;;;;4845294;29;20544;-75
2024/01/12 10:49:09;;;;;;;18.95;2.50;;;5.20;99.90;;;;;;4845190;29;20050;-75
2024/01/12 10:51:38;;;;;;;18.55;2.22;;;5.20;99.90;;;;;;4845364;29;20140;-75
2024/01/12 10:54:23;;;;;;;15.15;2.50;;;5.20;99.90;;;;;;4845131;29;20517;-75
2024/01/12 10:56:49;;;;;;;10.98;2.97;;;5.20;99.90;;;;;;4845176;29;20049;-75
2024/01/12 10:59:15;;;;;;;20.00;2.95;;;5.20;99.90;;;;;;4845068;29;20088;-75
2024/01/12 11:01:44;;;;;;;13.93;2.63;;;5.20;99.90;;;;;;4844924;29;20050;-75
2024/01/12 11:04:11;;;;;;;17.88;2.80;;;5.20;99.90;;;;;;4845184;29;20426;-74
2024/01/12 11:06:39;;;;;;;21.42;2.55;;;5.20;99.90;;;;;;4844796;29;20550;-74
2024/01/12 11:09:12;;;;;;;22.00;3.13;;;5.20;99.90;;;;;;4844777;29;20057;-74
2024/01/12 11:11:47;;;;;;;19.45;2.72;;;5.20;99.90;;;;;;4845175;29;20049;-74
2024/01/12 11:14:15;;;;;;;20.90;3.08;;;5.20;99.90;;;;;;4845203;29;20391;-74
2024/01/12 11:16:41;;;;;;;13.45;2.40;;;5.20;99.90;;;;;;4844977;29;20128;-75
2024/01/12 11:19:14;;;;;;;13.48;2.17;;;5.20;99.90;;;;;;4844980;29;20185;-74
2024/01/12 11:21:41;;;;;;;16.73;2.10;;;5.30;99.90;;;;;;4844627;29;20065;-77
2024/01/12 11:24:09;;;;;;;11.23;1.85;;;5.30;99.90;;;;;;4844896;29;20490;-75
2024/01/12 11:26:35;;;;;;;18.98;2.40;;;5.30;99.90;;;;;;4861192;29;20061;-74
2024/01/12 11:29:00;;;;;;;17.77;3.13;;;5.40;99.90;;;;;;4844558;29;20053;-75
2024/01/12 11:31:27;;;;;;;21.30;2.22;;;5.40;99.90;;;;;;4844828;29;20053;-76
2024/01/12 11:34:02;;;;;;;22.13;2.75;;;5.30;99.90;;;;;;4844541;29;20041;-77
2024/01/12 11:36:29;;;;;;;16.58;2.78;;;5.30;99.90;;;;;;4844815;29;20046;-76
2024/01/12 11:39:02;;;;;;;17.77;2.78;;;5.30;99.90;;;;;;4844299;29;20410;-75
2024/01/12 11:41:30;;;;;;;27.23;3.70;;;5.30;99.90;;;;;;4844506;29;20052;-75
2024/01/12 11:43:57;;;;;;;23.65;2.55;;;5.30;99.90;;;;;;4860999;29;20062;-75
2024/01/12 11:46:26;;;;;;;21.70;3.63;;;5.20;99.90;;;;;;4844352;29;20053;-79
2024/01/12 11:48:52;;;;;;;20.00;2.58;;;5.20;99.90;;;;;;4844307;29;20060;-75
2024/01/12 11:51:27;;;;;;;15.23;2.83;;;5.30;99.90;;;;;;4844332;29;20041;-75
2024/01/12 11:53:56;;;;;;;13.73;2.70;;;5.30;99.90;;;;;;4844536;29;20409;-75
2024/01/12 11:56:22;;;;;;;14.65;2.92;;;5.30;99.90;;;;;;4846282;29;20092;-75
2024/01/12 11:58:48;;;;;;;17.38;2.08;;;5.30;99.90;;;;;;4860569;29;20119;-75
2024/01/12 12:01:14;;;;;;;25.02;3.85;;;5.30;99.90;;;;;;4858712;29;20822;-75
2024/01/12 12:03:40;;;;;;;15.95;2.47;;;5.30;99.90;;;;;;4858020;29;20128;-76
2024/01/12 12:06:12;;;;;;;22.75;2.95;;;5.30;99.90;;;;;;4858798;29;20144;-76
2024/01/12 12:08:42;;;;;;;20.93;2.47;;;5.30;99.90;;;;;;4858496;29;20061;-76
2024/01/12 12:11:08;;;;;;;17.95;2.72;;;5.30;99.90;;;;;;4858361;29;20053;-75
2024/01/12 12:13:35;;;;;;;19.10;3.22;;;5.30;99.90;;;;;;4857993;29;20045;-76
2024/01/12 12:16:01;;;;;;;16.05;2.47;;;5.30;99.90;;;;;;4858827;29;20081;-76
2024/01/12 12:18:28;;;;;;;20.92;3.33;;;5.30;99.90;;;;;;4858145;29;20056;-76
2024/01/12 12:20:54;;;;;;;15.52;3.38;;;5.30;99.90;;;;;;4858275;29;20152;-75
2024/01/12 12:23:20;;;;;;;16.23;2.42;;;5.30;99.90;;;;;;4858751;29;20502;-76
2024/01/12 12:25:47;;;;;;;18.38;2.45;;;5.30;99.90;;;;;;4858163;29;20041;-76
2024/01/12 12:28:13;;;;;;;16.58;2.75;;;5.30;99.90;;;;;;4857378;29;20053;-76
2024/01/12 12:30:42;;;;;;;13.45;3.05;;;5.40;99.90;;;;;;4858808;29;20120;-76
2024/01/12 12:33:17;;;;;;;12.38;1.52;;;5.40;99.90;;;;;;4858173;29;20057;-76
2024/01/12 12:35:42;;;;;;;13.82;2.40;;;5.50;99.90;;;;;;4874849;29;20045;-75
2024/01/12 12:38:08;;;;;;;5.68;1.38;;;5.50;99.90;;;;;;4857794;29;20057;-76
2024/01/12 12:40:34;;;;;;;11.73;1.95;;;5.50;99.90;;;;;;4858932;29;20052;-76
2024/01/12 12:43:00;;;;;;;10.50;1.80;;;5.60;99.90;;;;;;4874740;29;20056;-76
2024/01/12 12:45:26;;;;;;;16.20;2.13;;;5.50;99.90;;;;;;4858234;29;20055;-76